Time;durP1;ratioP1;P1;durP2;ratioP2;P2;SDS_P1;SDS_P2;PMS_P1;PMS_P2;Temp;Humidity;BMP_temperature;BMP_pressure;BME280_temperature;BME280_humidity;BME280_pressure;Samples;Min_cycle;Max_cycle;Signal;HPM_P1;HPM_P2
2022/02/05 00:02:50;;;;;;;1.38;1.10;;;4.30;99.90;;;;;;5084835;28;20202;-73
2022/02/05 00:05:20;;;;;;;4.10;1.60;;;4.10;99.90;;;;;;5110972;28;20700;-73
2022/02/05 00:07:57;;;;;;;1.48;1.38;;;4.00;99.90;;;;;;5111096;28;20205;-73
2022/02/05 00:11:01;;;;;;;1.30;1.20;;;4.00;99.90;;;;;;5111147;28;20564;-74
2022/02/05 00:13:44;;;;;;;2.80;1.60;;;3.90;99.90;;;;;;5110512;28;20228;-73
2022/02/05 00:19:59;;;;;;;2.20;1.58;;;3.80;99.90;;;;;;5111705;28;20219;-73
2022/02/05 00:38:22;;;;;;;1.40;1.25;;;3.20;99.90;;;;;;5111069;28;20217;-73
2022/02/05 00:40:55;;;;;;;1.67;1.45;;;3.20;99.90;;;;;;5110530;28;20685;-73
2022/02/05 00:43:22;;;;;;;2.40;1.40;;;3.10;99.90;;;;;;5111320;28;20644;-73
2022/02/05 00:45:52;;;;;;;1.67;1.40;;;3.00;99.90;;;;;;5110611;28;20247;-73
2022/02/05 00:48:20;;;;;;;1.55;1.17;;;2.90;99.90;;;;;;5111015;28;20210;-73
2022/02/05 00:50:52;;;;;;;2.00;1.60;;;2.80;99.90;;;;;;5111604;28;20723;-73
2022/02/05 00:55:54;;;;;;;1.98;1.33;;;2.70;99.90;;;;;;5133714;22;20624;-74
2022/02/05 00:58:22;;;;;;;2.03;1.50;;;2.70;99.90;;;;;;5071644;28;20224;-74
2022/02/05 01:00:49;;;;;;;2.70;1.58;;;2.50;99.90;;;;;;5072028;28;20208;-74
2022/02/05 01:03:15;;;;;;;2.95;1.45;;;2.50;99.90;;;;;;5071909;28;20204;-73
2022/02/05 01:05:44;;;;;;;1.90;1.40;;;2.40;99.90;;;;;;5071386;28;20228;-73
2022/02/05 01:08:11;;;;;;;1.40;1.10;;;2.40;99.90;;;;;;5071843;28;20300;-75
2022/02/05 01:10:38;;;;;;;2.30;1.60;;;2.40;99.90;;;;;;5071332;28;20205;-71
2022/02/05 01:13:08;;;;;;;2.72;1.45;;;2.30;99.90;;;;;;5071329;28;20204;-72
2022/02/05 01:15:42;;;;;;;2.22;1.35;;;2.30;99.90;;;;;;5071581;28;20737;-72
2022/02/05 01:18:11;;;;;;;1.58;1.38;;;2.20;99.90;;;;;;5071999;28;20207;-73
2022/02/05 01:21:08;;;;;;;1.73;1.40;;;2.20;99.90;;;;;;5071828;28;20240;-72
2022/02/05 01:23:42;;;;;;;1.45;1.20;;;2.10;99.90;;;;;;5070863;28;20208;-74
2022/02/05 01:26:15;;;;;;;1.52;1.30;;;2.00;99.90;;;;;;5071754;28;20220;-74
2022/02/05 01:28:46;;;;;;;1.30;1.20;;;2.00;99.90;;;;;;5071195;28;20200;-73
2022/02/05 01:31:14;;;;;;;2.10;1.38;;;1.90;99.90;;;;;;5072110;28;20619;-73
2022/02/05 01:33:53;;;;;;;5.78;1.48;;;1.90;99.90;;;;;;5070849;28;20227;-72
2022/02/05 01:39:18;;;;;;;1.35;1.25;;;1.90;99.90;;;;;;5071389;28;20238;-74
2022/02/05 01:50:38;;;;;;;1.70;1.60;;;1.60;99.90;;;;;;5071527;28;20315;-73
2022/02/05 01:53:12;;;;;;;4.30;1.75;;;1.50;99.90;;;;;;5069331;28;20211;-76
2022/02/05 01:55:56;;;;;;;4.25;1.50;;;1.50;99.90;;;;;;5069260;28;20230;-75
2022/02/05 01:58:35;;;;;;;4.85;2.10;;;1.50;99.90;;;;;;5070603;28;20200;-76
2022/02/05 02:07:03;;;;;;;5.13;1.95;;;1.40;99.90;;;;;;5050333;28;20231;-75
2022/02/05 02:09:49;;;;;;;4.18;1.75;;;1.40;99.90;;;;;;5050169;28;20393;-76
2022/02/05 02:12:19;;;;;;;3.28;2.00;;;1.30;99.90;;;;;;5050284;28;20560;-76
2022/02/05 02:14:54;;;;;;;3.15;1.65;;;1.30;99.90;;;;;;5050399;28;20252;-73
2022/02/05 02:20:26;;;;;;;7.03;1.85;;;1.30;99.90;;;;;;5050587;28;20276;-74
2022/02/05 02:23:07;;;;;;;2.88;1.80;;;1.30;99.90;;;;;;5049984;28;20208;-74
2022/02/05 02:25:48;;;;;;;2.65;1.85;;;1.30;99.90;;;;;;5050455;28;20225;-74
2022/02/05 02:28:20;;;;;;;2.17;1.92;;;1.20;99.90;;;;;;5050382;28;20246;-76
2022/02/05 02:30:56;;;;;;;4.95;2.00;;;1.30;99.90;;;;;;5050954;28;20227;-74
2022/02/05 02:33:29;;;;;;;1.45;1.15;;;1.30;99.90;;;;;;5049932;28;20626;-74
2022/02/05 02:35:56;;;;;;;4.20;1.80;;;1.20;99.90;;;;;;5050514;28;20237;-75
2022/02/05 02:38:33;;;;;;;3.47;1.73;;;1.20;99.90;;;;;;5050254;28;20297;-74
2022/02/05 02:41:04;;;;;;;3.55;2.15;;;1.20;99.90;;;;;;5050185;28;20201;-76
2022/02/05 02:43:33;;;;;;;5.95;1.75;;;1.20;99.90;;;;;;5049790;28;20227;-73
2022/02/05 02:45:59;;;;;;;2.20;1.50;;;1.10;99.90;;;;;;5049961;28;20224;-75
2022/02/05 02:48:27;;;;;;;3.40;2.05;;;1.10;99.90;;;;;;5049985;28;20573;-75
2022/02/05 02:59:19;;;;;;;6.72;2.55;;;0.90;99.90;;;;;;5049413;28;20193;-76
2022/02/05 03:01:47;;;;;;;2.47;1.42;;;0.90;99.90;;;;;;5052959;28;20262;-74
2022/02/05 03:04:14;;;;;;;2.58;1.33;;;0.90;99.90;;;;;;5051036;28;20201;-75
2022/02/05 03:06:40;;;;;;;2.80;1.90;;;0.90;99.90;;;;;;5050465;28;20236;-73
2022/02/05 03:09:08;;;;;;;1.98;1.80;;;0.80;99.90;;;;;;5050445;28;20204;-76
2022/02/05 03:11:35;;;;;;;3.17;1.85;;;0.80;99.90;;;;;;5049609;28;20205;-76
2022/02/05 03:14:02;;;;;;;6.45;3.20;;;0.80;99.90;;;;;;5049658;28;20217;-76
2022/02/05 03:16:35;;;;;;;4.68;2.10;;;0.80;99.90;;;;;;5049466;28;20811;-75
2022/02/05 03:19:10;;;;;;;3.30;2.10;;;0.80;99.90;;;;;;5050361;28;20296;-76
2022/02/05 03:21:37;;;;;;;2.45;2.08;;;0.80;99.90;;;;;;5049813;28;20250;-75
2022/02/05 03:24:04;;;;;;;7.25;1.80;;;0.80;99.90;;;;;;5049380;28;20201;-75
2022/02/05 03:26:35;;;;;;;2.50;1.75;;;0.70;99.90;;;;;;5049880;28;20742;-75
2022/02/05 03:29:02;;;;;;;2.78;1.70;;;0.80;99.90;;;;;;5050141;28;20209;-75
2022/02/05 03:31:28;;;;;;;3.40;1.75;;;0.70;99.90;;;;;;5050149;28;20197;-75
2022/02/05 03:33:55;;;;;;;4.90;2.22;;;0.70;99.90;;;;;;5053459;28;20667;-75
2022/02/05 03:36:22;;;;;;;2.30;2.10;;;0.70;99.90;;;;;;5053382;28;20221;-75
2022/02/05 03:38:49;;;;;;;4.25;2.78;;;0.80;99.90;;;;;;5053832;28;20201;-75
2022/02/05 03:41:15;;;;;;;7.65;2.45;;;0.70;99.90;;;;;;5053595;28;20212;-75
2022/02/05 03:43:44;;;;;;;4.93;2.42;;;0.70;99.90;;;;;;5053189;28;20586;-75
2022/02/05 03:46:10;;;;;;;6.07;2.83;;;0.80;99.90;;;;;;5053641;28;20224;-75
2022/02/05 03:48:37;;;;;;;7.57;2.22;;;0.70;99.90;;;;;;5053202;28;20205;-76
2022/02/05 03:51:04;;;;;;;5.30;2.08;;;0.70;99.90;;;;;;5053712;28;20204;-76
2022/02/05 03:53:31;;;;;;;6.22;1.85;;;0.70;99.90;;;;;;5052388;28;20208;-75
2022/02/05 03:55:58;;;;;;;2.38;1.98;;;0.70;99.90;;;;;;5053572;28;20228;-74
2022/02/05 03:58:24;;;;;;;2.28;1.60;;;0.70;99.90;;;;;;5053192;28;20204;-76
2022/02/05 04:00:52;;;;;;;2.80;2.03;;;0.70;99.90;;;;;;5053201;28;20201;-75
2022/02/05 04:03:19;;;;;;;3.78;2.40;;;0.70;99.90;;;;;;5052671;28;20208;-73
2022/02/05 04:05:46;;;;;;;2.10;1.70;;;0.60;99.90;;;;;;5052525;28;20566;-75
2022/02/05 04:08:14;;;;;;;4.40;2.30;;;0.60;99.90;;;;;;5053312;28;20229;-74
2022/02/05 04:10:46;;;;;;;3.60;2.00;;;0.70;99.90;;;;;;5052975;28;20208;-75
2022/02/05 04:16:09;;;;;;;1.83;1.60;;;0.80;99.90;;;;;;5053185;28;20220;-74
2022/02/05 04:18:35;;;;;;;5.32;2.55;;;0.80;99.90;;;;;;5052851;28;20346;-74
2022/02/05 04:21:04;;;;;;;2.55;2.00;;;0.80;99.90;;;;;;5052760;28;20208;-75
2022/02/05 04:23:31;;;;;;;3.22;2.30;;;0.90;99.90;;;;;;5051534;28;20197;-74
2022/02/05 04:25:58;;;;;;;2.45;2.00;;;0.90;99.90;;;;;;5053085;28;20228;-74
2022/02/05 04:28:25;;;;;;;4.28;2.35;;;0.90;99.90;;;;;;5053009;28;20197;-74
2022/02/05 04:30:51;;;;;;;3.95;2.15;;;1.00;99.90;;;;;;5052829;28;20197;-74
2022/02/05 04:33:19;;;;;;;2.30;1.80;;;1.00;99.90;;;;;;5052313;28;20212;-75
2022/02/05 04:35:46;;;;;;;3.67;2.10;;;1.10;99.90;;;;;;5052591;28;20732;-75
2022/02/05 04:38:14;;;;;;;2.28;2.08;;;1.10;99.90;;;;;;5052900;28;20201;-74
2022/02/05 04:40:46;;;;;;;2.05;1.85;;;1.20;99.90;;;;;;5052728;28;20896;-76
2022/02/05 04:43:26;;;;;;;3.58;2.10;;;1.20;99.90;;;;;;5052369;28;20736;-76
2022/02/05 04:46:20;;;;;;;3.88;1.75;;;1.20;99.90;;;;;;5053134;28;20311;-75
2022/02/05 04:49:11;;;;;;;3.50;2.08;;;1.30;99.90;;;;;;5052762;28;20609;-73
2022/02/05 04:57:24;;;;;;;3.28;2.38;;;1.30;99.90;;;;;;5026489;28;20192;-76
2022/02/05 05:00:06;;;;;;;2.70;1.90;;;1.30;99.90;;;;;;5050765;28;20201;-75
2022/02/05 05:05:44;;;;;;;4.32;2.15;;;1.40;99.90;;;;;;5015405;28;20219;-75
2022/02/05 05:19:46;;;;;;;2.47;1.80;;;1.40;99.90;;;;;;4990292;28;20732;-76
2022/02/05 05:22:15;;;;;;;4.57;2.60;;;1.40;99.90;;;;;;4990006;28;20288;-74
2022/02/05 05:24:43;;;;;;;2.72;2.40;;;1.40;99.90;;;;;;5022523;28;20201;-74
2022/02/05 05:27:10;;;;;;;2.97;2.20;;;1.40;99.90;;;;;;5052407;28;20538;-75
2022/02/05 05:29:36;;;;;;;2.80;2.28;;;1.40;99.90;;;;;;5052049;28;20207;-75
2022/02/05 05:32:04;;;;;;;3.45;2.13;;;1.30;99.90;;;;;;5051551;28;20201;-75
2022/02/05 05:34:31;;;;;;;4.15;2.38;;;1.20;99.90;;;;;;5051555;28;20212;-75
2022/02/05 05:37:00;;;;;;;2.75;2.25;;;1.30;99.90;;;;;;5051675;28;20217;-74
2022/02/05 05:39:28;;;;;;;6.72;2.65;;;1.20;99.90;;;;;;5051414;28;20203;-75
2022/02/05 05:41:55;;;;;;;3.45;2.13;;;1.30;99.90;;;;;;5051735;28;20208;-75
2022/02/05 05:44:49;;;;;;;4.47;2.80;;;1.30;99.90;;;;;;5050984;28;20209;-76
2022/02/05 05:47:21;;;;;;;2.88;2.40;;;1.30;99.90;;;;;;5051497;28;20221;-75
2022/02/05 05:50:01;;;;;;;3.65;2.30;;;1.30;99.90;;;;;;5051521;28;20204;-75
2022/02/05 05:52:29;;;;;;;4.55;2.95;;;1.30;99.90;;;;;;5050927;28;20216;-75
2022/02/05 05:54:58;;;;;;;4.88;2.75;;;1.30;99.90;;;;;;5050856;28;20216;-75
2022/02/05 05:57:24;;;;;;;3.65;2.65;;;1.40;99.90;;;;;;5051489;28;20235;-76
2022/02/05 05:59:51;;;;;;;3.50;2.30;;;1.40;99.90;;;;;;5051178;28;20212;-76
2022/02/05 06:02:18;;;;;;;5.65;2.67;;;1.40;99.90;;;;;;5050769;28;20604;-75
2022/02/05 06:04:45;;;;;;;7.18;3.00;;;1.40;99.90;;;;;;5051187;28;20209;-76
2022/02/05 06:07:11;;;;;;;4.07;2.47;;;1.40;99.90;;;;;;5051249;28;20615;-76
2022/02/05 06:09:42;;;;;;;5.03;3.03;;;1.50;99.90;;;;;;5051143;28;20209;-75
2022/02/05 06:12:11;;;;;;;2.78;2.42;;;1.40;99.90;;;;;;5050658;28;20562;-76
2022/02/05 06:14:39;;;;;;;3.78;3.20;;;1.40;99.90;;;;;;5051101;28;20209;-75
2022/02/05 06:17:08;;;;;;;2.65;2.45;;;1.40;99.90;;;;;;5051184;28;20197;-75
2022/02/05 06:19:36;;;;;;;4.32;2.75;;;1.40;99.90;;;;;;5051256;28;20255;-75
2022/02/05 06:22:04;;;;;;;5.40;2.58;;;1.50;99.90;;;;;;5051102;28;20673;-77
2022/02/05 06:24:31;;;;;;;3.47;3.15;;;1.50;99.90;;;;;;5052605;28;20554;-76
2022/02/05 06:26:57;;;;;;;3.35;2.35;;;1.50;99.90;;;;;;5052572;28;20224;-76
2022/02/05 06:29:25;;;;;;;3.42;2.55;;;1.50;99.90;;;;;;5051355;28;20208;-76
2022/02/05 06:31:52;;;;;;;6.70;2.60;;;1.50;99.90;;;;;;5051757;28;20578;-76
2022/02/05 06:34:19;;;;;;;3.00;2.50;;;1.50;99.90;;;;;;5051496;28;20692;-76
2022/02/05 06:36:46;;;;;;;9.93;3.30;;;1.50;99.90;;;;;;5051814;28;20220;-76
2022/02/05 06:39:12;;;;;;;8.07;2.80;;;1.50;99.90;;;;;;5052216;28;20192;-75
2022/02/05 06:41:39;;;;;;;4.60;2.53;;;1.50;99.90;;;;;;5052137;28;20216;-76
2022/02/05 06:44:06;;;;;;;4.32;2.70;;;1.50;99.90;;;;;;5051900;28;20197;-75
2022/02/05 06:46:34;;;;;;;2.63;2.38;;;1.50;99.90;;;;;;5051171;28;20225;-76
2022/02/05 06:49:01;;;;;;;3.75;2.47;;;1.50;99.90;;;;;;5052239;28;20201;-75
2022/02/05 06:51:28;;;;;;;2.80;2.47;;;1.50;99.90;;;;;;5051693;28;20208;-76
2022/02/05 06:56:30;;;;;;;2.63;2.25;;;1.50;99.90;;;;;;4706652;22;20505;-73
2022/02/05 06:58:56;;;;;;;4.28;2.30;;;1.50;99.90;;;;;;4949327;28;20264;-73
2022/02/05 07:01:23;;;;;;;3.22;2.72;;;1.50;99.90;;;;;;4949515;28;20259;-73
2022/02/05 07:03:51;;;;;;;4.85;2.30;;;1.50;99.90;;;;;;4949089;28;20212;-73
2022/02/05 07:06:18;;;;;;;3.50;2.05;;;1.50;99.90;;;;;;4949305;28;20581;-74
2022/02/05 07:08:44;;;;;;;5.32;2.47;;;1.50;99.90;;;;;;4952759;28;20224;-73
2022/02/05 07:11:11;;;;;;;7.57;2.90;;;1.50;99.90;;;;;;4953038;28;20210;-74
2022/02/05 07:13:38;;;;;;;3.15;2.85;;;1.50;99.90;;;;;;4987916;28;20200;-73
2022/02/05 07:16:11;;;;;;;3.65;2.70;;;1.50;99.90;;;;;;4993817;28;20897;-73
2022/02/05 07:18:46;;;;;;;3.78;2.45;;;1.40;99.90;;;;;;5031375;28;20198;-73
2022/02/05 07:21:17;;;;;;;4.20;2.75;;;1.50;99.90;;;;;;5031544;28;20227;-72
2022/02/05 07:29:15;;;;;;;3.40;2.47;;;1.50;99.90;;;;;;5033886;28;20309;-72
2022/02/05 07:31:48;;;;;;;4.15;2.33;;;1.50;99.90;;;;;;5034249;28;20891;-73
2022/02/05 07:34:16;;;;;;;5.13;2.80;;;1.50;99.90;;;;;;5033616;28;20209;-72
2022/02/05 07:36:44;;;;;;;4.82;2.55;;;1.50;99.90;;;;;;5034468;28;20295;-73
2022/02/05 07:39:11;;;;;;;3.63;2.60;;;1.50;99.90;;;;;;5033855;28;20194;-73
2022/02/05 07:41:40;;;;;;;4.70;2.55;;;1.60;99.90;;;;;;5033874;28;20197;-74
2022/02/05 07:44:11;;;;;;;4.10;2.65;;;1.60;99.90;;;;;;5032883;28;20213;-73
2022/02/05 07:46:38;;;;;;;4.15;3.15;;;1.60;99.90;;;;;;5033325;28;20383;-73
2022/02/05 07:49:08;;;;;;;4.47;3.30;;;1.70;99.90;;;;;;5033399;28;20316;-74
2022/02/05 07:51:35;;;;;;;4.32;2.50;;;1.70;99.90;;;;;;5033826;28;20201;-73
2022/02/05 07:54:03;;;;;;;2.65;2.40;;;1.80;99.90;;;;;;5033054;28;20688;-73
2022/02/05 07:56:30;;;;;;;3.17;2.40;;;1.90;99.90;;;;;;5033325;28;20241;-73
2022/02/05 07:58:56;;;;;;;2.28;2.08;;;2.10;99.90;;;;;;5034149;28;20206;-72
2022/02/05 08:01:23;;;;;;;4.85;2.33;;;2.90;99.90;;;;;;5033439;28;20205;-73
2022/02/05 08:03:49;;;;;;;2.33;1.70;;;4.10;99.90;;;;;;5032942;28;20209;-73
2022/02/05 08:06:17;;;;;;;3.90;2.25;;;5.50;99.90;;;;;;5029660;28;20230;-73
2022/02/05 08:08:47;;;;;;;5.63;2.20;;;6.90;99.90;;;;;;4953190;28;20680;-73
2022/02/05 08:11:20;;;;;;;4.00;2.30;;;8.20;99.90;;;;;;4951872;28;20256;-73
2022/02/05 08:13:49;;;;;;;3.00;1.80;;;9.40;99.90;;;;;;4951215;28;20236;-73
2022/02/05 08:16:32;;;;;;;3.22;1.90;;;10.10;99.90;;;;;;4951680;28;20278;-73
2022/02/05 08:18:58;;;;;;;3.15;1.90;;;10.60;99.90;;;;;;4951402;28;20304;-73
2022/02/05 08:21:25;;;;;;;2.75;1.90;;;10.90;99.40;;;;;;4951315;28;20602;-73
2022/02/05 08:23:52;;;;;;;2.78;1.70;;;11.00;98.90;;;;;;4951186;28;20208;-73
2022/02/05 08:26:27;;;;;;;3.42;1.98;;;10.50;99.00;;;;;;4950963;28;20224;-73
2022/02/05 08:28:54;;;;;;;2.38;2.15;;;10.40;99.20;;;;;;4951727;28;20224;-73
2022/02/05 08:31:21;;;;;;;5.10;1.85;;;11.00;98.70;;;;;;4950858;28;20212;-72
2022/02/05 08:33:48;;;;;;;4.75;2.50;;;11.60;97.50;;;;;;4951087;28;20646;-74
2022/02/05 08:36:15;;;;;;;3.20;1.58;;;12.50;96.60;;;;;;4951226;28;20231;-74
2022/02/05 08:38:42;;;;;;;2.47;1.65;;;13.20;95.90;;;;;;4951279;28;20583;-73
2022/02/05 08:41:08;;;;;;;4.22;1.83;;;13.80;94.80;;;;;;4951334;28;20204;-74
2022/02/05 08:43:36;;;;;;;3.45;1.90;;;14.30;93.40;;;;;;4950658;28;20212;-73
2022/02/05 08:46:03;;;;;;;2.63;1.55;;;14.50;93.60;;;;;;4951256;28;20243;-73
2022/02/05 08:48:30;;;;;;;3.28;1.70;;;15.20;93.20;;;;;;4951237;28;20703;-73
2022/02/05 08:50:57;;;;;;;2.28;1.40;;;15.50;92.20;;;;;;4951250;28;20219;-74
2022/02/05 08:53:24;;;;;;;2.78;1.90;;;16.30;91.80;;;;;;4950089;28;20525;-73
2022/02/05 08:55:55;;;;;;;4.07;1.80;;;16.60;91.00;;;;;;4950131;28;20319;-73
2022/02/05 08:58:22;;;;;;;3.43;1.63;;;17.50;90.60;;;;;;4950521;28;20459;-71
2022/02/05 09:00:54;;;;;;;2.27;1.50;;;17.50;88.00;;;;;;4951273;28;20468;-70
2022/02/05 09:03:29;;;;;;;2.90;1.80;;;18.20;88.00;;;;;;4950323;28;21084;-70
2022/02/05 09:05:56;;;;;;;4.00;1.80;;;19.20;86.00;;;;;;4950994;28;20483;-71
2022/02/05 09:08:26;;;;;;;4.03;2.13;;;19.70;84.20;;;;;;4950862;28;20499;-71
2022/02/05 09:11:03;;;;;;;3.63;1.60;;;19.50;83.30;;;;;;4951091;28;20464;-71
2022/02/05 09:13:51;;;;;;;5.43;1.87;;;19.70;83.10;;;;;;4950117;28;20955;-72
2022/02/05 09:16:19;;;;;;;3.80;2.07;;;20.70;81.90;;;;;;4950838;28;20487;-72
2022/02/05 09:18:46;;;;;;;2.17;1.60;;;21.10;78.60;;;;;;4951144;28;20467;-72
2022/02/05 09:21:14;;;;;;;4.03;2.27;;;20.10;80.00;;;;;;4950717;28;20475;-71
2022/02/05 09:23:43;;;;;;;5.43;2.20;;;20.10;81.40;;;;;;4950211;28;20468;-73
2022/02/05 09:26:11;;;;;;;3.07;1.90;;;20.90;79.40;;;;;;4950507;28;20483;-73
2022/02/05 09:28:40;;;;;;;4.43;2.20;;;21.60;78.30;;;;;;4950651;28;21115;-72
2022/02/05 09:31:25;;;;;;;4.07;2.00;;;19.90;78.30;;;;;;4949799;28;20971;-71
2022/02/05 09:33:53;;;;;;;3.10;1.70;;;19.40;80.00;;;;;;4950617;28;20483;-73
2022/02/05 09:36:23;;;;;;;2.47;1.60;;;20.30;79.50;;;;;;4950279;28;21033;-73
2022/02/05 09:38:50;;;;;;;5.20;2.30;;;21.30;78.40;;;;;;4950782;28;20456;-72
2022/02/05 09:41:17;;;;;;;2.90;1.70;;;20.50;78.10;;;;;;4950590;28;20468;-73
2022/02/05 09:43:47;;;;;;;3.90;1.90;;;20.40;78.00;;;;;;4950224;28;20931;-71
2022/02/05 09:46:15;;;;;;;3.00;1.40;;;20.70;77.90;;;;;;4950466;28;20987;-72
2022/02/05 09:48:44;;;;;;;2.83;1.70;;;22.00;77.90;;;;;;4950643;28;20492;-73
2022/02/05 09:51:17;;;;;;;2.67;1.77;;;22.60;75.80;;;;;;4950389;28;20997;-73
2022/02/05 09:53:53;;;;;;;3.67;2.30;;;23.00;75.80;;;;;;4950422;28;20471;-72
2022/02/05 09:56:21;;;;;;;4.07;1.70;;;22.50;73.50;;;;;;4950091;28;20495;-72
2022/02/05 09:58:48;;;;;;;3.10;1.60;;;21.40;75.30;;;;;;4950338;28;20464;-72
2022/02/05 10:01:18;;;;;;;2.37;2.00;;;21.20;75.90;;;;;;4950386;28;20471;-70
2022/02/05 10:03:47;;;;;;;4.90;2.27;;;21.30;76.70;;;;;;4941564;28;20822;-71
2022/02/05 10:06:18;;;;;;;4.00;1.67;;;20.70;76.40;;;;;;4939487;28;20495;-71
2022/02/05 10:08:47;;;;;;;3.87;1.57;;;20.70;76.20;;;;;;4940432;28;20584;-71
2022/02/05 10:11:14;;;;;;;3.77;1.50;;;21.40;74.40;;;;;;4941174;28;20471;-72
2022/02/05 10:13:42;;;;;;;4.33;1.50;;;21.60;74.50;;;;;;4938622;28;20465;-72
2022/02/05 10:16:09;;;;;;;2.40;1.60;;;22.00;75.10;;;;;;4931139;29;20507;-72
2022/02/05 10:18:39;;;;;;;3.23;1.60;;;21.30;74.20;;;;;;4931430;28;20461;-73
2022/02/05 10:21:22;;;;;;;2.23;1.37;;;21.10;73.90;;;;;;4931255;28;20465;-73
2022/02/05 10:24:01;;;;;;;2.57;1.40;;;20.60;74.30;;;;;;4930689;28;20570;-70
2022/02/05 10:26:29;;;;;;;5.13;1.43;;;20.80;74.30;;;;;;4930893;29;20484;-72
2022/02/05 10:29:01;;;;;;;2.60;1.30;;;21.20;74.70;;;;;;4940690;28;20479;-71
2022/02/05 10:31:30;;;;;;;2.10;1.73;;;21.40;73.70;;;;;;4950198;28;20468;-71
2022/02/05 10:34:13;;;;;;;3.30;2.10;;;21.90;73.80;;;;;;4938592;28;20533;-72
2022/02/05 10:36:44;;;;;;;3.20;1.60;;;22.10;71.60;;;;;;4946443;28;20890;-72
2022/02/05 10:39:15;;;;;;;2.63;1.47;;;21.20;71.50;;;;;;4947517;28;20506;-72
2022/02/05 10:44:32;;;;;;;3.70;1.63;;;21.00;72.10;;;;;;4940477;29;20492;-73
2022/02/05 10:47:00;;;;;;;2.20;1.77;;;21.00;71.50;;;;;;4949238;29;20480;-70
2022/02/05 10:49:42;;;;;;;3.53;1.50;;;21.30;71.50;;;;;;4947640;29;20518;-71
2022/02/05 10:52:25;;;;;;;3.13;1.27;;;21.30;71.90;;;;;;4947646;28;20468;-71
2022/02/05 10:55:01;;;;;;;4.13;1.63;;;21.90;70.70;;;;;;4947907;28;20471;-71
2022/02/05 10:57:35;;;;;;;1.93;1.50;;;22.10;70.20;;;;;;4948388;28;20463;-71
2022/02/05 11:05:41;;;;;;;2.63;1.50;;;22.10;70.10;;;;;;4947521;29;20471;-71
2022/02/05 11:08:12;;;;;;;1.90;1.40;;;22.50;69.80;;;;;;4981263;28;20878;-71
2022/02/05 11:11:38;;;;;;;3.80;2.30;;;23.00;67.80;;;;;;5028793;28;20529;-72
2022/02/05 11:19:48;;;;;;;5.17;2.10;;;24.00;66.20;;;;;;5028674;28;20480;-72
2022/02/05 11:22:15;;;;;;;4.17;1.63;;;23.50;67.00;;;;;;5028032;28;20466;-72
2022/02/05 11:24:44;;;;;;;3.73;1.63;;;23.60;66.50;;;;;;4966246;28;20478;-71
2022/02/05 11:27:13;;;;;;;4.10;1.70;;;24.00;67.30;;;;;;4967489;28;20459;-72
2022/02/05 11:29:40;;;;;;;2.43;1.50;;;23.40;68.10;;;;;;4966754;28;20567;-71
2022/02/05 11:32:23;;;;;;;3.77;1.67;;;23.00;67.60;;;;;;4967317;28;20471;-71
2022/02/05 11:35:09;;;;;;;2.53;1.60;;;22.80;67.10;;;;;;4958384;28;20513;-73
2022/02/05 11:37:56;;;;;;;3.03;1.20;;;22.10;65.10;;;;;;4948635;28;20204;-73
2022/02/05 11:40:50;;;;;;;4.70;1.50;;;21.70;66.10;;;;;;4948262;28;20504;-73
2022/02/05 11:43:19;;;;;;;3.13;1.60;;;21.30;69.00;;;;;;4947672;28;20506;-74
2022/02/05 11:45:46;;;;;;;3.40;1.73;;;21.60;68.00;;;;;;4947953;28;20501;-73
2022/02/05 11:48:42;;;;;;;2.83;1.47;;;21.30;66.60;;;;;;4947761;28;20475;-73
2022/02/05 11:51:15;;;;;;;2.70;1.53;;;20.80;68.20;;;;;;4946061;28;20474;-73
2022/02/05 11:54:10;;;;;;;2.17;1.40;;;19.80;67.10;;;;;;4949430;28;20558;-73
2022/02/05 11:56:56;;;;;;;2.53;1.33;;;19.60;69.40;;;;;;4950826;28;20499;-73
2022/02/05 11:59:25;;;;;;;3.37;1.20;;;18.80;69.10;;;;;;4950913;28;20467;-73
2022/02/05 12:02:07;;;;;;;3.00;1.33;;;18.20;70.00;;;;;;4950959;28;20565;-73
2022/02/05 12:04:34;;;;;;;1.80;1.20;;;17.30;71.00;;;;;;4947604;28;20547;-72
2022/02/05 12:07:07;;;;;;;2.40;1.10;;;17.30;70.30;;;;;;4949979;28;20542;-73
2022/02/05 12:09:40;;;;;;;2.43;1.43;;;17.10;71.40;;;;;;4950781;28;20492;-73
2022/02/05 12:12:40;;;;;;;4.00;1.73;;;16.80;72.20;;;;;;4950449;28;20470;-73
2022/02/05 12:15:26;;;;;;;1.97;1.10;;;17.30;71.60;;;;;;4950157;28;20568;-72
2022/02/05 12:18:25;;;;;;;2.23;1.20;;;18.00;69.10;;;;;;4950934;28;20514;-72
2022/02/05 12:21:12;;;;;;;1.63;1.40;;;17.90;69.10;;;;;;4950392;28;20460;-73
2022/02/05 12:27:00;;;;;;;3.40;2.00;;;18.80;68.70;;;;;;4949645;28;20517;-72
2022/02/05 12:29:30;;;;;;;3.00;1.30;;;19.20;68.50;;;;;;4950331;28;20583;-72
2022/02/05 12:31:58;;;;;;;3.40;1.70;;;19.00;67.90;;;;;;4950308;28;20500;-72
2022/02/05 12:34:37;;;;;;;3.20;1.40;;;18.70;68.20;;;;;;4949777;28;20569;-72
2022/02/05 12:37:06;;;;;;;2.00;1.30;;;18.80;68.50;;;;;;4949555;28;20541;-72
2022/02/05 12:39:35;;;;;;;2.30;1.20;;;18.50;68.60;;;;;;4950661;28;20522;-73
2022/02/05 12:42:06;;;;;;;3.07;1.60;;;18.00;69.40;;;;;;4950515;28;20520;-72
2022/02/05 12:44:37;;;;;;;3.00;1.50;;;17.50;69.30;;;;;;4949494;28;20468;-72
2022/02/05 12:47:10;;;;;;;1.77;1.27;;;17.00;71.30;;;;;;4947781;28;20535;-72
2022/02/05 12:49:44;;;;;;;2.00;1.10;;;16.90;70.70;;;;;;4949961;28;20491;-72
2022/02/05 12:52:11;;;;;;;1.53;1.13;;;17.60;72.40;;;;;;4949095;28;20554;-72
2022/02/05 13:01:14;;;;;;;2.83;1.40;;;18.80;68.40;;;;;;5070454;22;21026;-75
2022/02/05 13:03:41;;;;;;;1.80;1.37;;;18.80;68.50;;;;;;5069824;28;20454;-75
2022/02/05 13:06:17;;;;;;;2.03;1.30;;;18.50;69.30;;;;;;5070403;28;20479;-74
2022/02/05 13:08:45;;;;;;;2.60;1.73;;;18.30;69.50;;;;;;5071117;28;20454;-73
2022/02/05 13:11:12;;;;;;;3.07;1.20;;;18.50;68.30;;;;;;5070724;28;20477;-74
2022/02/05 13:13:49;;;;;;;2.47;1.30;;;18.30;69.10;;;;;;5068987;28;20461;-74
2022/02/05 13:16:18;;;;;;;2.00;1.40;;;18.20;68.80;;;;;;5070516;28;20470;-73
2022/02/05 13:19:01;;;;;;;2.90;1.17;;;18.20;67.90;;;;;;5069844;28;20466;-74
2022/02/05 13:27:25;;;;;;;2.80;1.20;;;17.10;71.90;;;;;;5007620;28;20528;-74
2022/02/05 13:33:33;;;;;;;2.53;1.80;;;17.10;70.50;;;;;;5048241;28;20852;-74
2022/02/05 13:35:28;;;;;;;3.87;1.30;;;16.40;72.30;;;;;;5057758;28;20601;-75
2022/02/05 13:37:58;;;;;;;1.90;1.50;;;15.90;72.40;;;;;;5063724;28;20961;-75
2022/02/05 13:40:30;;;;;;;1.83;1.10;;;15.60;74.80;;;;;;5069891;28;20512;-75
2022/02/05 13:43:05;;;;;;;2.20;1.17;;;15.90;73.30;;;;;;5069476;28;20484;-73
2022/02/05 13:45:36;;;;;;;1.50;1.10;;;16.10;71.80;;;;;;5052526;28;20479;-74
2022/02/05 13:48:05;;;;;;;1.77;1.30;;;16.00;72.80;;;;;;5069674;28;20558;-73
2022/02/05 13:50:33;;;;;;;1.77;1.20;;;15.80;72.60;;;;;;5065473;28;20446;-74
2022/02/05 13:53:02;;;;;;;3.50;1.70;;;15.80;72.40;;;;;;5061130;28;20470;-74
2022/02/05 13:55:31;;;;;;;2.50;1.40;;;14.90;72.50;;;;;;5070262;28;21028;-74
2022/02/05 13:58:04;;;;;;;1.30;1.07;;;14.10;74.00;;;;;;5070188;28;20466;-74
2022/02/05 14:00:40;;;;;;;3.40;1.38;;;13.40;75.00;;;;;;5070391;28;20490;-74
2022/02/05 14:03:09;;;;;;;2.00;1.42;;;12.50;77.00;;;;;;5070043;28;20211;-74
2022/02/05 14:05:36;;;;;;;2.22;1.25;;;11.70;79.10;;;;;;5069423;28;20220;-76
2022/02/05 14:08:04;;;;;;;3.00;1.40;;;11.00;79.30;;;;;;5069919;28;20235;-74
2022/02/05 14:10:32;;;;;;;3.08;1.30;;;10.50;80.70;;;;;;5070309;28;20283;-74
2022/02/05 14:12:59;;;;;;;1.95;1.30;;;10.30;81.30;;;;;;5069578;28;20627;-74
2022/02/05 14:15:28;;;;;;;2.63;1.40;;;10.20;81.40;;;;;;5069014;28;20248;-75
2022/02/05 14:18:06;;;;;;;3.38;1.35;;;10.60;81.80;;;;;;5070060;28;20228;-74
2022/02/05 14:20:38;;;;;;;2.55;1.25;;;11.40;81.00;;;;;;5069070;28;20216;-74
2022/02/05 14:23:06;;;;;;;3.28;1.45;;;11.90;79.10;;;;;;5048774;28;20691;-74
2022/02/05 14:25:48;;;;;;;3.13;1.70;;;12.30;78.40;;;;;;5049111;28;20306;-74
2022/02/05 14:28:17;;;;;;;2.00;1.48;;;12.50;78.50;;;;;;5049283;28;20248;-74
2022/02/05 14:31:01;;;;;;;5.00;1.55;;;12.20;78.90;;;;;;5070360;28;20197;-74
2022/02/05 14:33:36;;;;;;;2.35;1.10;;;12.10;79.20;;;;;;5069605;28;20204;-74
2022/02/05 14:36:20;;;;;;;3.30;1.20;;;12.40;79.10;;;;;;5069645;28;20259;-75
2022/02/05 14:41:32;;;;;;;2.58;1.42;;;12.40;78.50;;;;;;5070106;28;20216;-75
2022/02/05 14:43:59;;;;;;;5.65;1.73;;;12.10;79.00;;;;;;5068727;28;20278;-75
2022/02/05 14:46:26;;;;;;;4.00;1.67;;;11.50;80.60;;;;;;5070288;28;20216;-75
2022/02/05 14:48:53;;;;;;;10.02;1.40;;;11.30;80.80;;;;;;5070316;28;20240;-75
2022/02/05 14:51:21;;;;;;;5.03;1.20;;;10.60;81.90;;;;;;5069009;28;20196;-74
2022/02/05 14:53:48;;;;;;;4.03;1.65;;;10.10;82.90;;;;;;5068147;28;20200;-74
2022/02/05 14:56:15;;;;;;;2.30;1.30;;;9.80;85.80;;;;;;5069361;28;20220;-74
2022/02/05 14:58:42;;;;;;;1.75;1.40;;;9.90;86.70;;;;;;5069606;28;20299;-75
2022/02/05 15:01:09;;;;;;;1.92;1.42;;;10.30;85.20;;;;;;5069904;28;20212;-73
2022/02/05 15:03:42;;;;;;;2.40;1.13;;;10.60;82.30;;;;;;5069393;28;20236;-73
2022/02/05 15:06:17;;;;;;;2.75;1.38;;;11.10;81.70;;;;;;5069319;28;20228;-74
2022/02/05 15:08:46;;;;;;;1.92;1.30;;;11.20;81.40;;;;;;5069394;28;20196;-73
2022/02/05 15:11:13;;;;;;;2.30;1.30;;;10.80;81.60;;;;;;5069470;28;20228;-75
2022/02/05 15:13:40;;;;;;;2.85;1.55;;;10.40;83.10;;;;;;5068520;28;20200;-74